<?xml version="1.0" encoding="UTF-8"?>
<gpx version="1.1" creator="https://www.youtrack.es" xsi:schemaLocation="http://www.topografix.com/GPX/1/1 http://www.topografix.com/GPX/1/1/gpx.xsd http://www.garmin.com/xmlschemas/GpxExtensions/v3 http://www.garmin.com/xmlschemas/GpxExtensionsv3.xsd http://www.garmin.com/xmlschemas/TrackPointExtension/v1 http://www.garmin.com/xmlschemas/TrackPointExtensionv1.xsd" xmlns:gpxtpx="http://www.garmin.com/xmlschemas/TrackPointExtension/v1" xmlns:gpxx="http://www.garmin.com/xmlschemas/GpxExtensions/v3" xmlns:xsi="http://www.w3.org/2001/XMLSchema-instance">
  <metadata>
    <link href="https://www.youtrack.es">
      <text>YouTrack.es</text>
    </link>
    <time>2026-05-07T16:24:47Z</time>
  </metadata>
  <trk>
    <src>https://www.youtrack.es</src>
    <link href="https://www.youtrack.es/ruta/206-hole-2018">
      <text>YouTrack.es</text>
    </link>
    <trkseg>
      <trkpt lat="36.712441" lon="-5.246199">
        <ele>421.917</ele>
        <time>1998-04-08T16:36:51Z</time>
      </trkpt>
      <trkpt lat="36.712492" lon="-5.245908">
        <ele>421.887</ele>
        <time>1998-04-08T16:37:09Z</time>
      </trkpt>
      <trkpt lat="36.713014" lon="-5.245527">
        <ele>421.215</ele>
        <time>1998-04-08T16:37:46Z</time>
      </trkpt>
      <trkpt lat="36.713296" lon="-5.245045">
        <ele>421.408</ele>
        <time>1998-04-08T16:38:14Z</time>
      </trkpt>
      <trkpt lat="36.713554" lon="-5.242672">
        <ele>429.913</ele>
        <time>1998-04-08T16:40:17Z</time>
      </trkpt>
      <trkpt lat="36.713897" lon="-5.241808">
        <ele>438.154</ele>
        <time>1998-04-08T16:41:07Z</time>
      </trkpt>
      <trkpt lat="36.714563" lon="-5.240840">
        <ele>436.149</ele>
        <time>1998-04-08T16:42:15Z</time>
      </trkpt>
      <trkpt lat="36.714144" lon="-5.241120">
        <ele>446.036</ele>
        <time>1998-04-08T16:43:04Z</time>
      </trkpt>
      <trkpt lat="36.714521" lon="-5.240183">
        <ele>452.975</ele>
        <time>1998-04-08T16:44:18Z</time>
      </trkpt>
      <trkpt lat="36.714349" lon="-5.239733">
        <ele>470.590</ele>
        <time>1998-04-08T16:44:51Z</time>
      </trkpt>
      <trkpt lat="36.714665" lon="-5.238600">
        <ele>488.793</ele>
        <time>1998-04-08T16:46:25Z</time>
      </trkpt>
      <trkpt lat="36.714977" lon="-5.238060">
        <ele>494.381</ele>
        <time>1998-04-08T16:47:13Z</time>
      </trkpt>
      <trkpt lat="36.714955" lon="-5.237581">
        <ele>503.866</ele>
        <time>1998-04-08T16:47:45Z</time>
      </trkpt>
      <trkpt lat="36.715518" lon="-5.236968">
        <ele>509.629</ele>
        <time>1998-04-08T16:48:51Z</time>
      </trkpt>
      <trkpt lat="36.715821" lon="-5.235999">
        <ele>515.821</ele>
        <time>1998-04-08T16:50:44Z</time>
      </trkpt>
      <trkpt lat="36.715716" lon="-5.235389">
        <ele>525.808</ele>
        <time>1998-04-08T16:51:21Z</time>
      </trkpt>
      <trkpt lat="36.716534" lon="-5.234611">
        <ele>523.068</ele>
        <time>1998-04-08T16:52:47Z</time>
      </trkpt>
      <trkpt lat="36.716526" lon="-5.234072">
        <ele>530.249</ele>
        <time>1998-04-08T16:53:16Z</time>
      </trkpt>
      <trkpt lat="36.716141" lon="-5.233332">
        <ele>542.354</ele>
        <time>1998-04-08T16:54:05Z</time>
      </trkpt>
      <trkpt lat="36.716396" lon="-5.232093">
        <ele>532.861</ele>
        <time>1998-04-08T16:55:10Z</time>
      </trkpt>
      <trkpt lat="36.717454" lon="-5.230901">
        <ele>536.240</ele>
        <time>1998-04-08T16:57:41Z</time>
      </trkpt>
      <trkpt lat="36.718097" lon="-5.228649">
        <ele>575.545</ele>
        <time>1998-04-08T17:01:39Z</time>
      </trkpt>
      <trkpt lat="36.719509" lon="-5.227281">
        <ele>600.148</ele>
        <time>1998-04-08T17:04:15Z</time>
      </trkpt>
      <trkpt lat="36.720011" lon="-5.226496">
        <ele>605.536</ele>
        <time>1998-04-08T17:05:22Z</time>
      </trkpt>
      <trkpt lat="36.720655" lon="-5.226137">
        <ele>610.234</ele>
        <time>1998-04-08T17:06:30Z</time>
      </trkpt>
      <trkpt lat="36.721024" lon="-5.225741">
        <ele>614.855</ele>
        <time>1998-04-08T17:07:11Z</time>
      </trkpt>
      <trkpt lat="36.721424" lon="-5.225115">
        <ele>620.210</ele>
        <time>1998-04-08T17:08:21Z</time>
      </trkpt>
      <trkpt lat="36.721487" lon="-5.224729">
        <ele>624.608</ele>
        <time>1998-04-08T17:08:47Z</time>
      </trkpt>
      <trkpt lat="36.722227" lon="-5.223823">
        <ele>630.465</ele>
        <time>1998-04-08T17:10:23Z</time>
      </trkpt>
      <trkpt lat="36.722414" lon="-5.223193">
        <ele>635.216</ele>
        <time>1998-04-08T17:11:08Z</time>
      </trkpt>
      <trkpt lat="36.722882" lon="-5.222879">
        <ele>638.831</ele>
        <time>1998-04-08T17:11:57Z</time>
      </trkpt>
      <trkpt lat="36.723168" lon="-5.222361">
        <ele>644.668</ele>
        <time>1998-04-08T17:12:36Z</time>
      </trkpt>
      <trkpt lat="36.723396" lon="-5.220564">
        <ele>660.157</ele>
        <time>1998-04-08T17:16:45Z</time>
      </trkpt>
      <trkpt lat="36.723702" lon="-5.219637">
        <ele>662.172</ele>
        <time>1998-04-08T17:18:01Z</time>
      </trkpt>
      <trkpt lat="36.723609" lon="-5.219061">
        <ele>666.465</ele>
        <time>1998-04-08T17:18:43Z</time>
      </trkpt>
      <trkpt lat="36.723770" lon="-5.218258">
        <ele>672.673</ele>
        <time>1998-04-08T17:19:52Z</time>
      </trkpt>
      <trkpt lat="36.723570" lon="-5.217444">
        <ele>681.942</ele>
        <time>1998-04-08T17:21:52Z</time>
      </trkpt>
      <trkpt lat="36.724068" lon="-5.214724">
        <ele>687.722</ele>
        <time>1998-04-08T17:28:11Z</time>
      </trkpt>
      <trkpt lat="36.724462" lon="-5.213649">
        <ele>664.814</ele>
        <time>1998-04-08T17:29:17Z</time>
      </trkpt>
      <trkpt lat="36.724759" lon="-5.212082">
        <ele>638.608</ele>
        <time>1998-04-08T17:31:03Z</time>
      </trkpt>
      <trkpt lat="36.724664" lon="-5.210848">
        <ele>625.436</ele>
        <time>1998-04-08T17:32:16Z</time>
      </trkpt>
      <trkpt lat="36.724839" lon="-5.209855">
        <ele>603.457</ele>
        <time>1998-04-08T17:33:16Z</time>
      </trkpt>
      <trkpt lat="36.724792" lon="-5.208955">
        <ele>590.282</ele>
        <time>1998-04-08T17:34:00Z</time>
      </trkpt>
      <trkpt lat="36.724199" lon="-5.208209">
        <ele>581.959</ele>
        <time>1998-04-08T17:34:54Z</time>
      </trkpt>
      <trkpt lat="36.723743" lon="-5.207303">
        <ele>572.998</ele>
        <time>1998-04-08T17:35:55Z</time>
      </trkpt>
      <trkpt lat="36.724768" lon="-5.205101">
        <ele>585.983</ele>
        <time>1998-04-08T17:38:14Z</time>
      </trkpt>
      <trkpt lat="36.725163" lon="-5.204620">
        <ele>584.556</ele>
        <time>1998-04-08T17:38:48Z</time>
      </trkpt>
      <trkpt lat="36.725303" lon="-5.204208">
        <ele>589.154</ele>
        <time>1998-04-08T17:39:11Z</time>
      </trkpt>
      <trkpt lat="36.725941" lon="-5.203762">
        <ele>589.753</ele>
        <time>1998-04-08T17:39:57Z</time>
      </trkpt>
      <trkpt lat="36.726078" lon="-5.202946">
        <ele>596.604</ele>
        <time>1998-04-08T17:40:42Z</time>
      </trkpt>
      <trkpt lat="36.726492" lon="-5.202677">
        <ele>594.414</ele>
        <time>1998-04-08T17:41:15Z</time>
      </trkpt>
      <trkpt lat="36.727229" lon="-5.201763">
        <ele>604.508</ele>
        <time>1998-04-08T17:42:25Z</time>
      </trkpt>
      <trkpt lat="36.727770" lon="-5.200717">
        <ele>617.047</ele>
        <time>1998-04-08T17:45:42Z</time>
      </trkpt>
      <trkpt lat="36.727993" lon="-5.201069">
        <ele>618.578</ele>
        <time>1998-04-08T17:47:22Z</time>
      </trkpt>
      <trkpt lat="36.728813" lon="-5.201198">
        <ele>627.123</ele>
        <time>1998-04-08T17:48:21Z</time>
      </trkpt>
      <trkpt lat="36.730144" lon="-5.201857">
        <ele>638.060</ele>
        <time>1998-04-08T17:50:05Z</time>
      </trkpt>
      <trkpt lat="36.731347" lon="-5.201857">
        <ele>647.329</ele>
        <time>1998-04-08T17:51:30Z</time>
      </trkpt>
      <trkpt lat="36.731930" lon="-5.201145">
        <ele>656.354</ele>
        <time>1998-04-08T17:52:35Z</time>
      </trkpt>
      <trkpt lat="36.732954" lon="-5.201510">
        <ele>646.157</ele>
        <time>1998-04-08T17:53:56Z</time>
      </trkpt>
      <trkpt lat="36.733290" lon="-5.201504">
        <ele>645.035</ele>
        <time>1998-04-08T17:54:26Z</time>
      </trkpt>
      <trkpt lat="36.733824" lon="-5.201049">
        <ele>648.442</ele>
        <time>1998-04-08T17:55:15Z</time>
      </trkpt>
      <trkpt lat="36.733950" lon="-5.200703">
        <ele>649.222</ele>
        <time>1998-04-08T17:55:38Z</time>
      </trkpt>
      <trkpt lat="36.735198" lon="-5.200388">
        <ele>641.314</ele>
        <time>1998-04-08T17:57:07Z</time>
      </trkpt>
      <trkpt lat="36.736478" lon="-5.199425">
        <ele>616.808</ele>
        <time>1998-04-08T17:59:00Z</time>
      </trkpt>
      <trkpt lat="36.742085" lon="-5.196559">
        <ele>567.956</ele>
        <time>1998-04-08T18:06:25Z</time>
      </trkpt>
      <trkpt lat="36.742895" lon="-5.196015">
        <ele>563.697</ele>
        <time>1998-04-08T18:07:25Z</time>
      </trkpt>
      <trkpt lat="36.744290" lon="-5.194586">
        <ele>543.132</ele>
        <time>1998-04-08T18:09:22Z</time>
      </trkpt>
      <trkpt lat="36.743341" lon="-5.193463">
        <ele>534.769</ele>
        <time>1998-04-08T18:10:48Z</time>
      </trkpt>
      <trkpt lat="36.742989" lon="-5.192035">
        <ele>530.028</ele>
        <time>1998-04-08T18:12:05Z</time>
      </trkpt>
      <trkpt lat="36.741912" lon="-5.191307">
        <ele>527.413</ele>
        <time>1998-04-08T18:13:21Z</time>
      </trkpt>
      <trkpt lat="36.741726" lon="-5.191032">
        <ele>524.046</ele>
        <time>1998-04-08T18:13:40Z</time>
      </trkpt>
      <trkpt lat="36.741749" lon="-5.190772">
        <ele>520.274</ele>
        <time>1998-04-08T18:13:54Z</time>
      </trkpt>
      <trkpt lat="36.742939" lon="-5.189287">
        <ele>497.721</ele>
        <time>1998-04-08T18:15:47Z</time>
      </trkpt>
      <trkpt lat="36.743152" lon="-5.189516">
        <ele>496.941</ele>
        <time>1998-04-08T18:16:08Z</time>
      </trkpt>
      <trkpt lat="36.743217" lon="-5.190175">
        <ele>498.205</ele>
        <time>1998-04-08T18:16:50Z</time>
      </trkpt>
      <trkpt lat="36.743484" lon="-5.190436">
        <ele>497.408</ele>
        <time>1998-04-08T18:17:13Z</time>
      </trkpt>
      <trkpt lat="36.743734" lon="-5.190394">
        <ele>500.574</ele>
        <time>1998-04-08T18:17:34Z</time>
      </trkpt>
      <trkpt lat="36.743975" lon="-5.190559">
        <ele>504.495</ele>
        <time>1998-04-08T18:17:55Z</time>
      </trkpt>
      <trkpt lat="36.743799" lon="-5.190102">
        <ele>503.260</ele>
        <time>1998-04-08T18:18:32Z</time>
      </trkpt>
      <trkpt lat="36.743953" lon="-5.189783">
        <ele>511.447</ele>
        <time>1998-04-08T18:19:00Z</time>
      </trkpt>
      <trkpt lat="36.744596" lon="-5.191043">
        <ele>516.456</ele>
        <time>1998-04-08T18:20:48Z</time>
      </trkpt>
      <trkpt lat="36.745971" lon="-5.190472">
        <ele>531.241</ele>
        <time>1998-04-08T18:22:35Z</time>
      </trkpt>
      <trkpt lat="36.746182" lon="-5.188875">
        <ele>550.074</ele>
        <time>1998-04-08T18:24:06Z</time>
      </trkpt>
      <trkpt lat="36.746386" lon="-5.188521">
        <ele>549.032</ele>
        <time>1998-04-08T18:24:29Z</time>
      </trkpt>
      <trkpt lat="36.747433" lon="-5.188015">
        <ele>545.723</ele>
        <time>1998-04-08T18:25:42Z</time>
      </trkpt>
      <trkpt lat="36.748010" lon="-5.187507">
        <ele>550.883</ele>
        <time>1998-04-08T18:26:30Z</time>
      </trkpt>
      <trkpt lat="36.748547" lon="-5.187389">
        <ele>553.111</ele>
        <time>1998-04-08T18:27:07Z</time>
      </trkpt>
      <trkpt lat="36.749787" lon="-5.186786">
        <ele>558.508</ele>
        <time>1998-04-08T18:28:34Z</time>
      </trkpt>
      <trkpt lat="36.750439" lon="-5.186198">
        <ele>564.134</ele>
        <time>1998-04-08T18:30:13Z</time>
      </trkpt>
      <trkpt lat="36.750186" lon="-5.186193">
        <ele>563.825</ele>
        <time>1998-04-08T18:31:09Z</time>
      </trkpt>
      <trkpt lat="36.749474" lon="-5.185753">
        <ele>566.990</ele>
        <time>1998-04-08T18:32:04Z</time>
      </trkpt>
      <trkpt lat="36.748705" lon="-5.185797">
        <ele>572.667</ele>
        <time>1998-04-08T18:32:56Z</time>
      </trkpt>
      <trkpt lat="36.747597" lon="-5.185299">
        <ele>584.886</ele>
        <time>1998-04-08T18:34:20Z</time>
      </trkpt>
      <trkpt lat="36.747206" lon="-5.184964">
        <ele>583.771</ele>
        <time>1998-04-08T18:34:56Z</time>
      </trkpt>
      <trkpt lat="36.747022" lon="-5.184581">
        <ele>577.894</ele>
        <time>1998-04-08T18:35:29Z</time>
      </trkpt>
      <trkpt lat="36.747264" lon="-5.184349">
        <ele>577.557</ele>
        <time>1998-04-08T18:35:53Z</time>
      </trkpt>
      <trkpt lat="36.747337" lon="-5.183973">
        <ele>575.522</ele>
        <time>1998-04-08T18:36:10Z</time>
      </trkpt>
      <trkpt lat="36.746878" lon="-5.182908">
        <ele>556.908</ele>
        <time>1998-04-08T18:37:19Z</time>
      </trkpt>
      <trkpt lat="36.746925" lon="-5.179733">
        <ele>539.841</ele>
        <time>1998-04-08T18:40:16Z</time>
      </trkpt>
      <trkpt lat="36.746354" lon="-5.177942">
        <ele>536.582</ele>
        <time>1998-04-08T18:41:52Z</time>
      </trkpt>
      <trkpt lat="36.746546" lon="-5.175382">
        <ele>544.347</ele>
        <time>1998-04-08T18:44:19Z</time>
      </trkpt>
      <trkpt lat="36.746330" lon="-5.174571">
        <ele>550.384</ele>
        <time>1998-04-08T18:45:05Z</time>
      </trkpt>
      <trkpt lat="36.745671" lon="-5.173620">
        <ele>553.513</ele>
        <time>1998-04-08T18:46:15Z</time>
      </trkpt>
      <trkpt lat="36.744833" lon="-5.173504">
        <ele>544.638</ele>
        <time>1998-04-08T18:47:15Z</time>
      </trkpt>
      <trkpt lat="36.744752" lon="-5.173153">
        <ele>543.641</ele>
        <time>1998-04-08T18:47:35Z</time>
      </trkpt>
      <trkpt lat="36.744081" lon="-5.172808">
        <ele>538.212</ele>
        <time>1998-04-08T18:48:23Z</time>
      </trkpt>
      <trkpt lat="36.743468" lon="-5.171919">
        <ele>536.325</ele>
        <time>1998-04-08T18:49:26Z</time>
      </trkpt>
      <trkpt lat="36.742763" lon="-5.171285">
        <ele>533.226</ele>
        <time>1998-04-08T18:50:20Z</time>
      </trkpt>
      <trkpt lat="36.742560" lon="-5.171453">
        <ele>537.408</ele>
        <time>1998-04-08T18:50:34Z</time>
      </trkpt>
      <trkpt lat="36.742486" lon="-5.172230">
        <ele>545.808</ele>
        <time>1998-04-08T18:51:36Z</time>
      </trkpt>
      <trkpt lat="36.742376" lon="-5.171512">
        <ele>544.294</ele>
        <time>1998-04-08T18:52:23Z</time>
      </trkpt>
      <trkpt lat="36.741771" lon="-5.170739">
        <ele>545.965</ele>
        <time>1998-04-08T18:53:25Z</time>
      </trkpt>
      <trkpt lat="36.740821" lon="-5.170438">
        <ele>545.640</ele>
        <time>1998-04-08T18:54:42Z</time>
      </trkpt>
      <trkpt lat="36.740352" lon="-5.170442">
        <ele>555.827</ele>
        <time>1998-04-08T18:55:24Z</time>
      </trkpt>
      <trkpt lat="36.739189" lon="-5.168399">
        <ele>634.256</ele>
        <time>1998-04-08T19:05:57Z</time>
      </trkpt>
      <trkpt lat="36.739222" lon="-5.168203">
        <ele>642.711</ele>
        <time>1998-04-08T19:07:28Z</time>
      </trkpt>
      <trkpt lat="36.738878" lon="-5.168175">
        <ele>657.734</ele>
        <time>1998-04-08T19:08:07Z</time>
      </trkpt>
      <trkpt lat="36.738320" lon="-5.168553">
        <ele>664.995</ele>
        <time>1998-04-08T19:09:18Z</time>
      </trkpt>
      <trkpt lat="36.738703" lon="-5.167533">
        <ele>686.157</ele>
        <time>1998-04-08T19:11:22Z</time>
      </trkpt>
      <trkpt lat="36.739020" lon="-5.167248">
        <ele>684.200</ele>
        <time>1998-04-08T19:12:04Z</time>
      </trkpt>
      <trkpt lat="36.738754" lon="-5.167181">
        <ele>698.620</ele>
        <time>1998-04-08T19:12:59Z</time>
      </trkpt>
      <trkpt lat="36.738879" lon="-5.166912">
        <ele>704.008</ele>
        <time>1998-04-08T19:13:28Z</time>
      </trkpt>
      <trkpt lat="36.738749" lon="-5.166872">
        <ele>712.237</ele>
        <time>1998-04-08T19:13:41Z</time>
      </trkpt>
      <trkpt lat="36.738391" lon="-5.166973">
        <ele>723.778</ele>
        <time>1998-04-08T19:14:53Z</time>
      </trkpt>
      <trkpt lat="36.738144" lon="-5.167302">
        <ele>716.863</ele>
        <time>1998-04-08T19:15:44Z</time>
      </trkpt>
      <trkpt lat="36.738141" lon="-5.166933">
        <ele>727.890</ele>
        <time>1998-04-08T19:16:23Z</time>
      </trkpt>
      <trkpt lat="36.739445" lon="-5.166111">
        <ele>727.069</ele>
        <time>1998-04-08T19:18:11Z</time>
      </trkpt>
      <trkpt lat="36.739982" lon="-5.165588">
        <ele>722.384</ele>
        <time>1998-04-08T19:18:56Z</time>
      </trkpt>
      <trkpt lat="36.740476" lon="-5.165702">
        <ele>709.197</ele>
        <time>1998-04-08T19:19:28Z</time>
      </trkpt>
      <trkpt lat="36.740888" lon="-5.166018">
        <ele>706.118</ele>
        <time>1998-04-08T19:19:57Z</time>
      </trkpt>
      <trkpt lat="36.743435" lon="-5.167139">
        <ele>728.078</ele>
        <time>1998-04-08T19:22:47Z</time>
      </trkpt>
      <trkpt lat="36.743510" lon="-5.167390">
        <ele>727.333</ele>
        <time>1998-04-08T19:23:04Z</time>
      </trkpt>
      <trkpt lat="36.743119" lon="-5.168393">
        <ele>721.626</ele>
        <time>1998-04-08T19:26:14Z</time>
      </trkpt>
      <trkpt lat="36.743578" lon="-5.167672">
        <ele>726.808</ele>
        <time>1998-04-08T19:38:58Z</time>
      </trkpt>
      <trkpt lat="36.744386" lon="-5.167312">
        <ele>731.979</ele>
        <time>1998-04-08T19:40:17Z</time>
      </trkpt>
      <trkpt lat="36.747079" lon="-5.168984">
        <ele>747.130</ele>
        <time>1998-04-08T19:44:15Z</time>
      </trkpt>
      <trkpt lat="36.747497" lon="-5.168186">
        <ele>748.555</ele>
        <time>1998-04-08T19:45:12Z</time>
      </trkpt>
    </trkseg>
  </trk>
</gpx>
